sensor_id;sensor_type;location;lat;lon;timestamp;pressure;altitude;pressure_sealevel;temperature;humidity
69306;BME280;56427;51.580;4.656;2023-05-01T00:00:31;101738.06;;;12.44;100.00
69306;BME280;56427;51.580;4.656;2023-05-01T00:02:56;101728.25;;;12.59;100.00
69306;BME280;56427;51.580;4.656;2023-05-01T00:05:22;101726.34;;;12.39;100.00
69306;BME280;56427;51.580;4.656;2023-05-01T00:07:47;101723.13;;;12.35;100.00
69306;BME280;56427;51.580;4.656;2023-05-01T00:10:12;101718.78;;;12.47;100.00
69306;BME280;56427;51.580;4.656;2023-05-01T00:12:38;101718.31;;;12.42;100.00
69306;BME280;56427;51.580;4.656;2023-05-01T00:15:03;101718.56;;;12.50;100.00
69306;BME280;56427;51.580;4.656;2023-05-01T00:17:29;101713.22;;;12.29;100.00
69306;BME280;56427;51.580;4.656;2023-05-01T00:19:55;101712.13;;;12.31;100.00
69306;BME280;56427;51.580;4.656;2023-05-01T00:22:20;101709.41;;;12.44;100.00
69306;BME280;56427;51.580;4.656;2023-05-01T00:24:45;101705.06;;;12.33;100.00
69306;BME280;56427;51.580;4.656;2023-05-01T00:27:13;101701.03;;;12.41;100.00
69306;BME280;56427;51.580;4.656;2023-05-01T00:29:38;101701.25;;;12.38;100.00
69306;BME280;56427;51.580;4.656;2023-05-01T00:32:04;101696.53;;;12.43;100.00
69306;BME280;56427;51.580;4.656;2023-05-01T00:34:29;101694.03;;;12.41;100.00
69306;BME280;56427;51.580;4.656;2023-05-01T00:36:55;101687.53;;;12.47;100.00
69306;BME280;56427;51.580;4.656;2023-05-01T00:39:20;101688.25;;;12.49;100.00
69306;BME280;56427;51.580;4.656;2023-05-01T00:41:46;101690.63;;;12.41;100.00
69306;BME280;56427;51.580;4.656;2023-05-01T00:44:11;101685.41;;;12.29;100.00
69306;BME280;56427;51.580;4.656;2023-05-01T00:46:36;101691.56;;;12.40;100.00
69306;BME280;56427;51.580;4.656;2023-05-01T00:49:03;101685.41;;;12.29;100.00
69306;BME280;56427;51.580;4.656;2023-05-01T00:51:28;101684.31;;;12.43;100.00
69306;BME280;56427;51.580;4.656;2023-05-01T00:53:54;101674.88;;;12.20;100.00
69306;BME280;56427;51.580;4.656;2023-05-01T00:56:20;101673.59;;;12.25;100.00
69306;BME280;56427;51.580;4.656;2023-05-01T00:58:49;101668.63;;;12.22;100.00
69306;BME280;56427;51.580;4.656;2023-05-01T01:01:19;101666.13;;;12.21;100.00
69306;BME280;56427;51.580;4.656;2023-05-01T01:03:45;101661.84;;;12.20;100.00
69306;BME280;56427;51.580;4.656;2023-05-01T01:14:58;101644.97;;;12.14;100.00
69306;BME280;56427;51.580;4.656;2023-05-01T01:20:13;101636.19;;;12.15;100.00
69306;BME280;56427;51.580;4.656;2023-05-01T01:22:46;101626.63;;;12.15;100.00
69306;BME280;56427;51.580;4.656;2023-05-01T01:28:16;101633.94;;;12.10;100.00
69306;BME280;56427;51.580;4.656;2023-05-01T01:31:08;101628.38;;;12.15;100.00
69306;BME280;56427;51.580;4.656;2023-05-01T01:33:54;101629.81;;;12.30;100.00
69306;BME280;56427;51.580;4.656;2023-05-01T01:39:10;101616.03;;;12.51;100.00
69306;BME280;56427;51.580;4.656;2023-05-01T01:41:39;101616.56;;;12.33;100.00
69306;BME280;56427;51.580;4.656;2023-05-01T01:46:47;101603.78;;;12.30;100.00
69306;BME280;56427;51.580;4.656;2023-05-01T01:49:18;101602.22;;;12.39;100.00
69306;BME280;56427;51.580;4.656;2023-05-01T01:51:44;101593.34;;;12.42;100.00
69306;BME280;56427;51.580;4.656;2023-05-01T01:54:12;101600.25;;;12.09;100.00
69306;BME280;56427;51.580;4.656;2023-05-01T01:56:40;101587.13;;;11.99;100.00
69306;BME280;56427;51.580;4.656;2023-05-01T01:59:08;101593.09;;;11.88;100.00
69306;BME280;56427;51.580;4.656;2023-05-01T02:01:35;101593.38;;;12.08;100.00
69306;BME280;56427;51.580;4.656;2023-05-01T02:04:03;101590.31;;;12.25;100.00
69306;BME280;56427;51.580;4.656;2023-05-01T02:06:30;101584.13;;;12.38;100.00
69306;BME280;56427;51.580;4.656;2023-05-01T02:08:58;101587.72;;;12.03;100.00
69306;BME280;56427;51.580;4.656;2023-05-01T02:11:25;101580.00;;;11.90;100.00
69306;BME280;56427;51.580;4.656;2023-05-01T02:13:52;101579.25;;;11.65;100.00
69306;BME280;56427;51.580;4.656;2023-05-01T02:16:20;101576.78;;;11.75;100.00
69306;BME280;56427;51.580;4.656;2023-05-01T02:18:47;101578.31;;;11.55;100.00
69306;BME280;56427;51.580;4.656;2023-05-01T02:21:14;101571.09;;;11.58;100.00
69306;BME280;56427;51.580;4.656;2023-05-01T02:23:41;101574.41;;;11.60;100.00
69306;BME280;56427;51.580;4.656;2023-05-01T02:26:12;101571.91;;;11.48;100.00
69306;BME280;56427;51.580;4.656;2023-05-01T02:28:38;101564.44;;;11.32;100.00
69306;BME280;56427;51.580;4.656;2023-05-01T02:31:05;101562.44;;;11.35;100.00
69306;BME280;56427;51.580;4.656;2023-05-01T02:33:31;101558.47;;;11.76;100.00
69306;BME280;56427;51.580;4.656;2023-05-01T02:35:56;101550.78;;;11.75;100.00
69306;BME280;56427;51.580;4.656;2023-05-01T02:38:21;101554.22;;;11.87;100.00
69306;BME280;56427;51.580;4.656;2023-05-01T02:40:51;101553.16;;;11.67;100.00
69306;BME280;56427;51.580;4.656;2023-05-01T02:43:19;101551.84;;;11.84;100.00
69306;BME280;56427;51.580;4.656;2023-05-01T02:45:46;101554.78;;;11.79;100.00
69306;BME280;56427;51.580;4.656;2023-05-01T02:48:17;101551.97;;;11.59;100.00
69306;BME280;56427;51.580;4.656;2023-05-01T02:50:43;101545.44;;;11.54;100.00
69306;BME280;56427;51.580;4.656;2023-05-01T02:53:11;101537.16;;;11.49;100.00
69306;BME280;56427;51.580;4.656;2023-05-01T02:55:37;101540.47;;;11.51;100.00
69306;BME280;56427;51.580;4.656;2023-05-01T02:58:03;101542.28;;;11.62;100.00
69306;BME280;56427;51.580;4.656;2023-05-01T03:00:28;101538.84;;;11.72;100.00
69306;BME280;56427;51.580;4.656;2023-05-01T03:02:54;101533.03;;;11.69;100.00
69306;BME280;56427;51.580;4.656;2023-05-01T03:05:19;101525.84;;;11.50;100.00
69306;BME280;56427;51.580;4.656;2023-05-01T03:07:45;101533.16;;;11.78;100.00
69306;BME280;56427;51.580;4.656;2023-05-01T03:10:11;101529.41;;;11.71;100.00
69306;BME280;56427;51.580;4.656;2023-05-01T03:12:37;101520.03;;;11.69;100.00
69306;BME280;56427;51.580;4.656;2023-05-01T03:15:02;101530.84;;;11.98;100.00
69306;BME280;56427;51.580;4.656;2023-05-01T03:17:28;101518.88;;;11.62;100.00
69306;BME280;56427;51.580;4.656;2023-05-01T03:19:53;101523.00;;;11.64;100.00
69306;BME280;56427;51.580;4.656;2023-05-01T03:22:19;101513.31;;;11.55;100.00
69306;BME280;56427;51.580;4.656;2023-05-01T03:24:44;101521.59;;;11.71;100.00
69306;BME280;56427;51.580;4.656;2023-05-01T03:27:11;101514.03;;;11.68;100.00
69306;BME280;56427;51.580;4.656;2023-05-01T03:29:37;101521.59;;;11.60;100.00
69306;BME280;56427;51.580;4.656;2023-05-01T03:32:03;101512.22;;;11.46;100.00
69306;BME280;56427;51.580;4.656;2023-05-01T03:34:28;101509.41;;;11.49;100.00
69306;BME280;56427;51.580;4.656;2023-05-01T03:36:54;101510.97;;;11.74;100.00
69306;BME280;56427;51.580;4.656;2023-05-01T03:39:19;101503.63;;;11.57;100.00
69306;BME280;56427;51.580;4.656;2023-05-01T03:41:45;101507.75;;;11.48;100.00
69306;BME280;56427;51.580;4.656;2023-05-01T03:44:10;101495.91;;;11.33;100.00
69306;BME280;56427;51.580;4.656;2023-05-01T03:46:35;101502.84;;;11.10;100.00
69306;BME280;56427;51.580;4.656;2023-05-01T03:49:01;101497.69;;;11.32;100.00
69306;BME280;56427;51.580;4.656;2023-05-01T03:51:26;101489.53;;;11.26;100.00
69306;BME280;56427;51.580;4.656;2023-05-01T03:53:52;101493.63;;;11.05;100.00
69306;BME280;56427;51.580;4.656;2023-05-01T03:56:17;101490.19;;;11.05;100.00
69306;BME280;56427;51.580;4.656;2023-05-01T03:58:43;101491.34;;;10.90;100.00
69306;BME280;56427;51.580;4.656;2023-05-01T04:01:08;101484.78;;;11.08;100.00
69306;BME280;56427;51.580;4.656;2023-05-01T04:03:33;101492.13;;;11.26;100.00
69306;BME280;56427;51.580;4.656;2023-05-01T04:05:59;101490.94;;;11.07;100.00
69306;BME280;56427;51.580;4.656;2023-05-01T04:08:24;101497.19;;;11.16;100.00
69306;BME280;56427;51.580;4.656;2023-05-01T04:10:50;101485.25;;;11.02;100.00
69306;BME280;56427;51.580;4.656;2023-05-01T04:13:15;101486.22;;;11.12;100.00
69306;BME280;56427;51.580;4.656;2023-05-01T04:15:44;101481.50;;;11.17;100.00
69306;BME280;56427;51.580;4.656;2023-05-01T04:18:10;101487.19;;;11.34;100.00
69306;BME280;56427;51.580;4.656;2023-05-01T04:20:36;101487.16;;;11.22;100.00
69306;BME280;56427;51.580;4.656;2023-05-01T04:23:01;101485.63;;;11.20;100.00
69306;BME280;56427;51.580;4.656;2023-05-01T04:25:26;101481.00;;;11.01;100.00
69306;BME280;56427;51.580;4.656;2023-05-01T04:27:52;101479.78;;;10.82;100.00
69306;BME280;56427;51.580;4.656;2023-05-01T04:30:17;101478.66;;;11.20;100.00
69306;BME280;56427;51.580;4.656;2023-05-01T04:32:43;101475.34;;;11.07;100.00
69306;BME280;56427;51.580;4.656;2023-05-01T04:35:08;101478.28;;;11.02;100.00
69306;BME280;56427;51.580;4.656;2023-05-01T04:37:34;101471.22;;;11.16;100.00
69306;BME280;56427;51.580;4.656;2023-05-01T04:39:59;101473.19;;;11.01;100.00
69306;BME280;56427;51.580;4.656;2023-05-01T04:42:31;101475.34;;;11.07;100.00
69306;BME280;56427;51.580;4.656;2023-05-01T04:44:57;101473.91;;;11.03;100.00
69306;BME280;56427;51.580;4.656;2023-05-01T04:47:26;101471.66;;;11.10;100.00
69306;BME280;56427;51.580;4.656;2023-05-01T04:49:51;101470.75;;;11.22;100.00
69306;BME280;56427;51.580;4.656;2023-05-01T04:52:16;101477.22;;;11.16;100.00
69306;BME280;56427;51.580;4.656;2023-05-01T04:54:42;101468.97;;;11.11;100.00
69306;BME280;56427;51.580;4.656;2023-05-01T04:57:07;101473.59;;;11.30;100.00
69306;BME280;56427;51.580;4.656;2023-05-01T04:59:32;101473.34;;;11.22;100.00
69306;BME280;56427;51.580;4.656;2023-05-01T05:01:58;101477.72;;;11.10;100.00
69306;BME280;56427;51.580;4.656;2023-05-01T05:04:23;101467.03;;;10.91;100.00
69306;BME280;56427;51.580;4.656;2023-05-01T05:06:49;101474.88;;;11.13;100.00
69306;BME280;56427;51.580;4.656;2023-05-01T05:09:14;101476.53;;;11.14;100.00
69306;BME280;56427;51.580;4.656;2023-05-01T05:11:40;101476.91;;;11.44;100.00
69306;BME280;56427;51.580;4.656;2023-05-01T05:14:05;101473.72;;;11.40;100.00
69306;BME280;56427;51.580;4.656;2023-05-01T05:16:31;101473.13;;;11.36;100.00
69306;BME280;56427;51.580;4.656;2023-05-01T05:18:56;101472.41;;;11.34;100.00
69306;BME280;56427;51.580;4.656;2023-05-01T05:21:22;101473.69;;;11.17;100.00
69306;BME280;56427;51.580;4.656;2023-05-01T05:23:47;101480.91;;;11.36;100.00
69306;BME280;56427;51.580;4.656;2023-05-01T05:26:12;101479.97;;;11.37;100.00
69306;BME280;56427;51.580;4.656;2023-05-01T05:28:38;101476.53;;;11.26;100.00
69306;BME280;56427;51.580;4.656;2023-05-01T05:31:03;101476.44;;;11.27;100.00
69306;BME280;56427;51.580;4.656;2023-05-01T05:33:28;101482.69;;;11.36;100.00
69306;BME280;56427;51.580;4.656;2023-05-01T05:35:54;101481.50;;;11.63;100.00
69306;BME280;56427;51.580;4.656;2023-05-01T05:38:19;101480.22;;;11.91;100.00
69306;BME280;56427;51.580;4.656;2023-05-01T05:40:45;101484.22;;;11.72;100.00
69306;BME280;56427;51.580;4.656;2023-05-01T05:43:10;101481.75;;;11.71;100.00
69306;BME280;56427;51.580;4.656;2023-05-01T05:45:36;101478.47;;;11.91;100.00
69306;BME280;56427;51.580;4.656;2023-05-01T05:48:02;101479.84;;;12.07;100.00
69306;BME280;56427;51.580;4.656;2023-05-01T05:50:27;101482.53;;;12.17;100.00
69306;BME280;56427;51.580;4.656;2023-05-01T05:52:54;101484.22;;;11.84;100.00
69306;BME280;56427;51.580;4.656;2023-05-01T05:55:19;101479.56;;;12.21;100.00
69306;BME280;56427;51.580;4.656;2023-05-01T05:57:45;101482.47;;;11.95;100.00
69306;BME280;56427;51.580;4.656;2023-05-01T06:00:10;101477.81;;;12.10;100.00
69306;BME280;56427;51.580;4.656;2023-05-01T06:02:36;101478.84;;;12.30;100.00
69306;BME280;56427;51.580;4.656;2023-05-01T06:05:02;101476.53;;;12.16;100.00
69306;BME280;56427;51.580;4.656;2023-05-01T06:07:27;101479.78;;;12.29;100.00
69306;BME280;56427;51.580;4.656;2023-05-01T06:09:53;101480.56;;;12.09;100.00
69306;BME280;56427;51.580;4.656;2023-05-01T06:12:19;101478.44;;;12.03;100.00
69306;BME280;56427;51.580;4.656;2023-05-01T06:14:44;101484.94;;;11.97;100.00
69306;BME280;56427;51.580;4.656;2023-05-01T06:17:10;101486.59;;;12.09;100.00
69306;BME280;56427;51.580;4.656;2023-05-01T06:19:36;101488.53;;;12.28;100.00
69306;BME280;56427;51.580;4.656;2023-05-01T06:22:01;101488.53;;;12.28;100.00
69306;BME280;56427;51.580;4.656;2023-05-01T06:24:27;101483.06;;;12.43;100.00
69306;BME280;56427;51.580;4.656;2023-05-01T06:26:53;101477.25;;;12.93;100.00
69306;BME280;56427;51.580;4.656;2023-05-01T06:29:18;101478.78;;;13.16;100.00
69306;BME280;56427;51.580;4.656;2023-05-01T06:31:46;101485.34;;;12.89;100.00
69306;BME280;56427;51.580;4.656;2023-05-01T06:34:12;101480.66;;;12.51;100.00
69306;BME280;56427;51.580;4.656;2023-05-01T06:36:37;101478.75;;;12.53;100.00
69306;BME280;56427;51.580;4.656;2023-05-01T06:39:03;101478.97;;;13.24;100.00
69306;BME280;56427;51.580;4.656;2023-05-01T06:41:28;101473.63;;;13.47;100.00
69306;BME280;56427;51.580;4.656;2023-05-01T06:43:53;101469.06;;;13.39;100.00
69306;BME280;56427;51.580;4.656;2023-05-01T06:46:19;101476.84;;;13.60;100.00
69306;BME280;56427;51.580;4.656;2023-05-01T06:48:44;101473.25;;;13.61;100.00
69306;BME280;56427;51.580;4.656;2023-05-01T06:51:10;101474.09;;;13.10;100.00
69306;BME280;56427;51.580;4.656;2023-05-01T06:53:35;101469.75;;;13.20;100.00
69306;BME280;56427;51.580;4.656;2023-05-01T06:56:01;101468.94;;;13.41;100.00
69306;BME280;56427;51.580;4.656;2023-05-01T06:58:27;101468.72;;;13.54;100.00
69306;BME280;56427;51.580;4.656;2023-05-01T07:00:52;101466.16;;;13.33;100.00
69306;BME280;56427;51.580;4.656;2023-05-01T07:03:18;101470.41;;;13.13;100.00
69306;BME280;56427;51.580;4.656;2023-05-01T07:05:43;101470.25;;;13.35;100.00
69306;BME280;56427;51.580;4.656;2023-05-01T07:08:08;101476.53;;;13.54;100.00
69306;BME280;56427;51.580;4.656;2023-05-01T07:10:34;101482.69;;;13.53;100.00
69306;BME280;56427;51.580;4.656;2023-05-01T07:13:00;101476.56;;;13.64;100.00
69306;BME280;56427;51.580;4.656;2023-05-01T07:15:25;101483.63;;;13.83;100.00
69306;BME280;56427;51.580;4.656;2023-05-01T07:17:50;101472.84;;;13.66;100.00
69306;BME280;56427;51.580;4.656;2023-05-01T07:20:16;101474.09;;;14.32;100.00
69306;BME280;56427;51.580;4.656;2023-05-01T07:22:42;101478.22;;;14.34;100.00
69306;BME280;56427;51.580;4.656;2023-05-01T07:25:07;101481.94;;;14.51;100.00
69306;BME280;56427;51.580;4.656;2023-05-01T07:27:33;101472.84;;;14.07;100.00
69306;BME280;56427;51.580;4.656;2023-05-01T07:30:00;101475.06;;;13.71;100.00
69306;BME280;56427;51.580;4.656;2023-05-01T07:32:26;101475.88;;;14.22;100.00
69306;BME280;56427;51.580;4.656;2023-05-01T07:34:51;101475.34;;;14.38;100.00
69306;BME280;56427;51.580;4.656;2023-05-01T07:37:17;101472.81;;;13.97;100.00
69306;BME280;56427;51.580;4.656;2023-05-01T07:39:43;101483.34;;;13.86;100.00
69306;BME280;56427;51.580;4.656;2023-05-01T07:42:09;101476.34;;;13.86;100.00
69306;BME280;56427;51.580;4.656;2023-05-01T07:44:34;101476.28;;;14.36;100.00
69306;BME280;56427;51.580;4.656;2023-05-01T07:47:03;101478.25;;;15.31;100.00
69306;BME280;56427;51.580;4.656;2023-05-01T07:49:29;101478.00;;;15.61;100.00
69306;BME280;56427;51.580;4.656;2023-05-01T07:51:54;101482.50;;;14.84;100.00
69306;BME280;56427;51.580;4.656;2023-05-01T07:54:20;101486.31;;;15.00;100.00
69306;BME280;56427;51.580;4.656;2023-05-01T07:56:47;101483.38;;;16.15;100.00
69306;BME280;56427;51.580;4.656;2023-05-01T07:59:12;101480.25;;;15.09;100.00
69306;BME280;56427;51.580;4.656;2023-05-01T08:01:39;101478.44;;;15.09;100.00
69306;BME280;56427;51.580;4.656;2023-05-01T08:04:05;101482.34;;;14.96;100.00
69306;BME280;56427;51.580;4.656;2023-05-01T08:06:31;101479.03;;;15.03;100.00
69306;BME280;56427;51.580;4.656;2023-05-01T08:08:56;101479.22;;;15.30;100.00
69306;BME280;56427;51.580;4.656;2023-05-01T08:11:22;101472.50;;;15.27;100.00
69306;BME280;56427;51.580;4.656;2023-05-01T08:13:47;101478.31;;;15.01;100.00
69306;BME280;56427;51.580;4.656;2023-05-01T08:16:12;101479.16;;;15.02;100.00
69306;BME280;56427;51.580;4.656;2023-05-01T08:18:38;101484.28;;;14.94;100.00
69306;BME280;56427;51.580;4.656;2023-05-01T08:21:03;101482.06;;;14.99;100.00
69306;BME280;56427;51.580;4.656;2023-05-01T08:23:28;101476.16;;;14.97;100.00
69306;BME280;56427;51.580;4.656;2023-05-01T08:25:54;101480.06;;;15.20;100.00
69306;BME280;56427;51.580;4.656;2023-05-01T08:28:21;101479.16;;;15.02;100.00
69306;BME280;56427;51.580;4.656;2023-05-01T08:30:47;101481.94;;;15.00;100.00
69306;BME280;56427;51.580;4.656;2023-05-01T08:33:13;101480.41;;;14.98;100.00
69306;BME280;56427;51.580;4.656;2023-05-01T08:35:39;101483.25;;;15.14;100.00
69306;BME280;56427;51.580;4.656;2023-05-01T08:38:04;101481.44;;;15.15;100.00
69306;BME280;56427;51.580;4.656;2023-05-01T08:40:35;101479.59;;;14.97;100.00
69306;BME280;56427;51.580;4.656;2023-05-01T08:43:02;101488.00;;;14.62;100.00
69306;BME280;56427;51.580;4.656;2023-05-01T08:45:33;101487.59;;;14.86;100.00
69306;BME280;56427;51.580;4.656;2023-05-01T08:48:04;101485.22;;;14.93;100.00
69306;BME280;56427;51.580;4.656;2023-05-01T08:50:30;101487.47;;;15.35;100.00
69306;BME280;56427;51.580;4.656;2023-05-01T08:52:58;101491.38;;;15.11;100.00
69306;BME280;56427;51.580;4.656;2023-05-01T08:55:25;101495.19;;;15.36;100.00
69306;BME280;56427;51.580;4.656;2023-05-01T08:57:52;101491.63;;;15.18;100.00
69306;BME280;56427;51.580;4.656;2023-05-01T09:00:19;101497.97;;;15.90;100.00
69306;BME280;56427;51.580;4.656;2023-05-01T09:02:47;101501.59;;;15.89;100.00
69306;BME280;56427;51.580;4.656;2023-05-01T09:05:17;101494.31;;;15.73;100.00
69306;BME280;56427;51.580;4.656;2023-05-01T09:07:43;101502.06;;;16.03;100.00
69306;BME280;56427;51.580;4.656;2023-05-01T09:10:11;101494.19;;;16.03;100.00
69306;BME280;56427;51.580;4.656;2023-05-01T09:12:37;101500.56;;;16.18;100.00
69306;BME280;56427;51.580;4.656;2023-05-01T09:15:04;101505.22;;;15.78;100.00
69306;BME280;56427;51.580;4.656;2023-05-01T09:17:31;101511.09;;;16.08;100.00
69306;BME280;56427;51.580;4.656;2023-05-01T09:19:57;101509.31;;;16.09;100.00
69306;BME280;56427;51.580;4.656;2023-05-01T09:22:23;101504.78;;;15.73;100.00
69306;BME280;56427;51.580;4.656;2023-05-01T09:24:48;101508.34;;;15.54;100.00
69306;BME280;56427;51.580;4.656;2023-05-01T09:27:14;101506.38;;;15.56;100.00
69306;BME280;56427;51.580;4.656;2023-05-01T09:29:45;101512.56;;;15.93;100.00
69306;BME280;56427;51.580;4.656;2023-05-01T09:32:19;101507.97;;;16.05;100.00
69306;BME280;56427;51.580;4.656;2023-05-01T09:34:49;101511.75;;;15.92;100.00
69306;BME280;56427;51.580;4.656;2023-05-01T09:37:27;101511.22;;;15.89;100.00
69306;BME280;56427;51.580;4.656;2023-05-01T09:40:09;101515.09;;;15.85;100.00
69306;BME280;56427;51.580;4.656;2023-05-01T09:42:56;101511.91;;;16.36;100.00
69306;BME280;56427;51.580;4.656;2023-05-01T09:45:22;101514.75;;;15.97;100.00
69306;BME280;56427;51.580;4.656;2023-05-01T09:47:48;101521.94;;;16.13;100.00
69306;BME280;56427;51.580;4.656;2023-05-01T09:50:31;101519.91;;;15.89;100.00
69306;BME280;56427;51.580;4.656;2023-05-01T09:52:57;101531.47;;;16.14;100.00
69306;BME280;56427;51.580;4.656;2023-05-01T09:55:24;101527.84;;;15.97;100.00
69306;BME280;56427;51.580;4.656;2023-05-01T09:57:50;101528.97;;;15.95;100.00
69306;BME280;56427;51.580;4.656;2023-05-01T10:00:16;101528.47;;;15.81;100.00
69306;BME280;56427;51.580;4.656;2023-05-01T10:02:44;101536.13;;;15.55;100.00
69306;BME280;56427;51.580;4.656;2023-05-01T10:05:10;101529.91;;;15.66;100.00
69306;BME280;56427;51.580;4.656;2023-05-01T10:07:37;101536.53;;;15.13;100.00
69306;BME280;56427;51.580;4.656;2023-05-01T10:10:16;101534.53;;;15.35;100.00
69306;BME280;56427;51.580;4.656;2023-05-01T10:12:41;101542.59;;;15.04;100.00
69306;BME280;56427;51.580;4.656;2023-05-01T10:15:08;101550.16;;;14.87;100.00
69306;BME280;56427;51.580;4.656;2023-05-01T10:17:34;101543.91;;;14.40;100.00
69306;BME280;56427;51.580;4.656;2023-05-01T10:20:00;101546.88;;;14.66;100.00
69306;BME280;56427;51.580;4.656;2023-05-01T10:22:26;101552.16;;;14.35;100.00
69306;BME280;56427;51.580;4.656;2023-05-01T10:24:52;101555.59;;;14.35;100.00
69306;BME280;56427;51.580;4.656;2023-05-01T10:27:18;101555.34;;;14.48;100.00
69306;BME280;56427;51.580;4.656;2023-05-01T10:29:47;101562.50;;;14.56;100.00
69306;BME280;56427;51.580;4.656;2023-05-01T10:32:16;101555.03;;;14.42;100.00
69306;BME280;56427;51.580;4.656;2023-05-01T10:34:46;101555.97;;;14.11;100.00
69306;BME280;56427;51.580;4.656;2023-05-01T10:37:17;101565.78;;;14.48;100.00
69306;BME280;56427;51.580;4.656;2023-05-01T10:39:43;101563.28;;;14.37;100.00
69306;BME280;56427;51.580;4.656;2023-05-01T10:42:09;101558.06;;;14.37;100.00
69306;BME280;56427;51.580;4.656;2023-05-01T10:44:38;101560.47;;;14.09;100.00
69306;BME280;56427;51.580;4.656;2023-05-01T10:52:28;101564.69;;;14.01;100.00
69306;BME280;56427;51.580;4.656;2023-05-01T10:55:33;101567.06;;;14.04;100.00
69306;BME280;56427;51.580;4.656;2023-05-01T10:57:58;101568.47;;;13.77;100.00
69306;BME280;56427;51.580;4.656;2023-05-01T11:00:24;101571.19;;;14.16;100.00
69306;BME280;56427;51.580;4.656;2023-05-01T11:02:50;101568.91;;;14.32;100.00
69306;BME280;56427;51.580;4.656;2023-05-01T11:05:15;101567.50;;;13.78;100.00
69306;BME280;56427;51.580;4.656;2023-05-01T11:07:41;101567.13;;;13.61;100.00
69306;BME280;56427;51.580;4.656;2023-05-01T11:10:25;101570.16;;;13.57;100.00
69306;BME280;56427;51.580;4.656;2023-05-01T11:12:51;101573.66;;;13.46;100.00
69306;BME280;56427;51.580;4.656;2023-05-01T11:15:30;101576.00;;;13.49;100.00
69306;BME280;56427;51.580;4.656;2023-05-01T11:17:57;101572.91;;;13.55;100.00
69306;BME280;56427;51.580;4.656;2023-05-01T11:22:50;101578.25;;;13.33;100.00
69306;BME280;56427;51.580;4.656;2023-05-01T11:25:20;101591.19;;;13.23;100.00
69306;BME280;56427;51.580;4.656;2023-05-01T11:27:51;101573.63;;;13.25;100.00
69306;BME280;56427;51.580;4.656;2023-05-01T11:30:17;101580.72;;;13.34;100.00
69306;BME280;56427;51.580;4.656;2023-05-01T11:32:44;101585.34;;;13.31;100.00
69306;BME280;56427;51.580;4.656;2023-05-01T11:35:20;101580.34;;;13.39;100.00
69306;BME280;56427;51.580;4.656;2023-05-01T11:37:47;101582.59;;;13.53;100.00
69306;BME280;56427;51.580;4.656;2023-05-01T11:40:35;101581.28;;;13.90;100.00
69306;BME280;56427;51.580;4.656;2023-05-01T11:43:05;101582.91;;;14.22;100.00
69306;BME280;56427;51.580;4.656;2023-05-01T11:45:32;101582.34;;;14.18;100.00
69306;BME280;56427;51.580;4.656;2023-05-01T11:47:58;101576.28;;;14.17;100.00
69306;BME280;56427;51.580;4.656;2023-05-01T11:50:41;101583.06;;;14.30;100.00
69306;BME280;56427;51.580;4.656;2023-05-01T11:53:11;101575.47;;;14.87;100.00
69306;BME280;56427;51.580;4.656;2023-05-01T11:55:39;101587.44;;;14.80;100.00
69306;BME280;56427;51.580;4.656;2023-05-01T11:58:05;101576.97;;;14.60;100.00
69306;BME280;56427;51.580;4.656;2023-05-01T12:00:33;101587.81;;;14.75;100.00
69306;BME280;56427;51.580;4.656;2023-05-01T12:03:05;101576.00;;;14.61;100.00
69306;BME280;56427;51.580;4.656;2023-05-01T12:05:32;101580.25;;;15.11;100.00
69306;BME280;56427;51.580;4.656;2023-05-01T12:10:33;101577.09;;;15.84;100.00
69306;BME280;56427;51.580;4.656;2023-05-01T12:13:01;101575.94;;;15.96;100.00
69306;BME280;56427;51.580;4.656;2023-05-01T12:15:26;101575.16;;;15.86;100.00
69306;BME280;56427;51.580;4.656;2023-05-01T12:17:52;101577.13;;;16.12;100.00
69306;BME280;56427;51.580;4.656;2023-05-01T12:20:33;101575.06;;;16.33;100.00
69306;BME280;56427;51.580;4.656;2023-05-01T12:22:58;101570.88;;;15.85;100.00
69306;BME280;56427;51.580;4.656;2023-05-01T12:25:29;101566.88;;;15.91;100.00
69306;BME280;56427;51.580;4.656;2023-05-01T12:27:56;101577.72;;;16.69;100.00
69306;BME280;56427;51.580;4.656;2023-05-01T12:30:25;101567.31;;;17.74;100.00
69306;BME280;56427;51.580;4.656;2023-05-01T12:32:55;101566.22;;;17.24;100.00
69306;BME280;56427;51.580;4.656;2023-05-01T12:35:21;101565.91;;;17.54;100.00
69306;BME280;56427;51.580;4.656;2023-05-01T12:37:46;101562.56;;;18.20;100.00
69306;BME280;56427;51.580;4.656;2023-05-01T12:40:13;101560.06;;;17.68;100.00
69306;BME280;56427;51.580;4.656;2023-05-01T12:42:39;101566.25;;;17.59;100.00
69306;BME280;56427;51.580;4.656;2023-05-01T12:45:05;101563.41;;;17.78;100.00
69306;BME280;56427;51.580;4.656;2023-05-01T12:47:37;101558.88;;;17.62;100.00
69306;BME280;56427;51.580;4.656;2023-05-01T12:50:03;101568.13;;;17.14;100.00
69306;BME280;56427;51.580;4.656;2023-05-01T12:52:29;101561.00;;;17.59;100.00
69306;BME280;56427;51.580;4.656;2023-05-01T12:55:02;101557.88;;;18.32;100.00
69306;BME280;56427;51.580;4.656;2023-05-01T12:57:28;101559.25;;;18.86;100.00
69306;BME280;56427;51.580;4.656;2023-05-01T12:59:59;101555.47;;;19.05;100.00
69306;BME280;56427;51.580;4.656;2023-05-01T13:02:32;101565.44;;;18.68;100.00
69306;BME280;56427;51.580;4.656;2023-05-01T13:05:08;101566.94;;;18.79;100.00
69306;BME280;56427;51.580;4.656;2023-05-01T13:07:35;101558.91;;;19.05;98.13
69306;BME280;56427;51.580;4.656;2023-05-01T13:10:01;101559.47;;;18.25;100.00